Time,TemperatureF,DewpointF,PressureIn,WindDirection,WindDirectionDegrees,WindSpeedMPH,WindSpeedGustMPH,Humidity,HourlyPrecipIn,Conditions,Clouds,dailyrainin,SoftwareType,DateUTC
2013-05-31 00:03:00,62.1,59.4,29.77,South,180,12.0,14.0,91,0.00,,,0.09,meteohub,2013-05-31 05:03:00,
2013-05-31 00:08:00,61.7,59.0,29.77,South,180,10.0,13.0,91,0.00,,,0.00,meteohub,2013-05-31 05:08:00,
2013-05-31 00:13:00,61.9,59.0,29.77,SW,225,11.0,13.0,90,0.00,,,0.00,meteohub,2013-05-31 05:13:00,
2013-05-31 00:19:00,61.9,59.0,29.78,South,180,15.0,15.0,90,0.00,,,0.00,meteohub,2013-05-31 05:19:00,
2013-05-31 00:24:00,61.9,58.6,29.77,SW,225,15.0,15.0,89,0.00,,,0.00,meteohub,2013-05-31 05:24:00,
2013-05-31 00:29:00,62.1,58.8,29.77,SW,225,13.0,15.0,89,0.00,,,0.00,meteohub,2013-05-31 05:29:00,
2013-05-31 00:34:00,62.1,58.8,29.78,South,180,13.0,17.0,89,0.00,,,0.00,meteohub,2013-05-31 05:34:00,
2013-05-31 00:39:00,61.9,59.0,29.78,SW,225,11.0,17.0,90,0.00,,,0.00,meteohub,2013-05-31 05:39:00,
2013-05-31 00:44:00,61.9,59.0,29.78,SW,225,14.0,17.0,90,0.00,,,0.00,meteohub,2013-05-31 05:44:00,
2013-05-31 00:49:00,62.1,59.2,29.78,South,180,11.0,17.0,90,0.00,,,0.00,meteohub,2013-05-31 05:49:00,
2013-05-31 00:54:00,61.9,59.0,29.77,South,180,11.0,17.0,90,0.00,,,0.00,meteohub,2013-05-31 05:54:00,
2013-05-31 00:59:00,62.1,59.2,29.77,SW,225,15.0,17.0,90,0.00,,,0.00,meteohub,2013-05-31 05:59:00,
2013-05-31 01:04:00,62.1,59.2,29.77,South,180,10.0,16.0,90,0.00,,,0.00,meteohub,2013-05-31 06:04:00,
2013-05-31 01:09:00,62.4,59.4,29.77,SW,225,15.0,17.0,90,0.00,,,0.00,meteohub,2013-05-31 06:09:00,
2013-05-31 01:14:00,62.6,59.5,29.76,South,180,15.0,18.0,90,0.00,,,0.00,meteohub,2013-05-31 06:14:00,
2013-05-31 01:19:00,62.6,59.5,29.76,SW,225,11.0,18.0,90,0.00,,,0.00,meteohub,2013-05-31 06:19:00,
2013-05-31 01:24:00,62.6,59.5,29.76,SW,225,11.0,18.0,90,0.00,,,0.00,meteohub,2013-05-31 06:24:00,
2013-05-31 01:29:00,62.6,59.9,29.76,SW,225,9.0,15.0,91,0.00,,,0.00,meteohub,2013-05-31 06:29:00,
2013-05-31 01:35:00,62.4,59.7,29.77,SW,225,11.0,15.0,91,0.00,,,0.00,meteohub,2013-05-31 06:35:00,
2013-05-31 01:40:00,62.6,59.9,29.76,SW,225,12.0,18.0,91,0.00,,,0.00,meteohub,2013-05-31 06:40:00,
2013-05-31 01:45:00,62.6,59.9,29.76,South,180,11.0,18.0,91,0.00,,,0.00,meteohub,2013-05-31 06:45:00,
2013-05-31 01:50:00,62.6,59.9,29.76,South,180,10.0,18.0,91,0.00,,,0.00,meteohub,2013-05-31 06:50:00,
2013-05-31 01:55:00,62.4,59.7,29.76,SW,225,15.0,16.0,91,0.00,,,0.00,meteohub,2013-05-31 06:55:00,
2013-05-31 02:00:00,62.6,59.9,29.77,SW,225,13.0,15.0,91,0.00,,,0.00,meteohub,2013-05-31 07:00:00,
2013-05-31 02:05:00,62.6,59.9,29.76,SW,225,13.0,17.0,91,0.00,,,0.00,meteohub,2013-05-31 07:05:00,
2013-05-31 02:10:00,62.8,60.1,29.76,South,180,17.0,18.0,91,0.00,,,0.00,meteohub,2013-05-31 07:10:00,
2013-05-31 02:15:00,62.8,60.1,29.76,SW,225,17.0,17.0,91,0.00,,,0.00,meteohub,2013-05-31 07:15:00,
2013-05-31 02:20:00,62.8,60.1,29.76,SW,225,15.0,18.0,91,0.00,,,0.00,meteohub,2013-05-31 07:20:00,
2013-05-31 02:25:00,63.0,60.3,29.76,South,180,20.0,20.0,91,0.00,,,0.00,meteohub,2013-05-31 07:25:00,
2013-05-31 02:30:00,63.0,60.3,29.76,SW,225,17.0,21.0,91,0.00,,,0.00,meteohub,2013-05-31 07:30:00,
2013-05-31 02:35:00,63.0,60.3,29.76,SW,225,17.0,21.0,91,0.00,,,0.00,meteohub,2013-05-31 07:35:00,
2013-05-31 02:41:00,63.0,60.3,29.76,South,180,11.0,21.0,91,0.00,,,0.00,meteohub,2013-05-31 07:41:00,
2013-05-31 02:46:00,63.0,59.9,29.76,SW,225,15.0,17.0,90,0.00,,,0.00,meteohub,2013-05-31 07:46:00,
2013-05-31 02:51:00,63.0,59.9,29.76,SW,225,17.0,17.0,90,0.00,,,0.00,meteohub,2013-05-31 07:51:00,
2013-05-31 02:56:00,63.0,59.9,29.77,South,180,21.0,21.0,90,0.00,,,0.00,meteohub,2013-05-31 07:56:00,
2013-05-31 03:01:00,63.1,59.9,29.77,South,180,20.0,21.0,89,0.00,,,0.00,meteohub,2013-05-31 08:01:00,
2013-05-31 03:06:00,63.1,59.9,29.76,South,180,20.0,21.0,89,0.00,,,0.00,meteohub,2013-05-31 08:06:00,
2013-05-31 03:11:00,63.0,59.9,29.76,South,180,19.0,21.0,90,0.00,,,0.00,meteohub,2013-05-31 08:11:00,
2013-05-31 03:16:00,63.0,59.9,29.77,SW,225,15.0,20.0,90,0.00,,,0.00,meteohub,2013-05-31 08:16:00,
2013-05-31 03:21:00,62.8,59.7,29.77,SW,225,14.0,20.0,90,0.00,,,0.00,meteohub,2013-05-31 08:21:00,
2013-05-31 03:27:00,62.8,59.7,29.76,South,180,11.0,21.0,90,0.00,,,0.00,meteohub,2013-05-31 08:27:00,
2013-05-31 03:32:00,62.8,59.7,29.77,SW,225,12.0,21.0,90,0.00,,,0.00,meteohub,2013-05-31 08:32:00,
2013-05-31 03:37:00,62.8,59.7,29.77,SW,225,11.0,21.0,90,0.00,,,0.00,meteohub,2013-05-31 08:37:00,
2013-05-31 03:42:00,63.0,59.7,29.77,SW,225,17.0,18.0,89,0.00,,,0.00,meteohub,2013-05-31 08:42:00,
2013-05-31 03:47:00,62.8,59.5,29.76,SW,225,14.0,19.0,89,0.00,,,0.00,meteohub,2013-05-31 08:47:00,
2013-05-31 03:52:00,62.8,59.7,29.77,West,270,9.0,19.0,90,0.00,,,0.00,meteohub,2013-05-31 08:52:00,
2013-05-31 03:57:00,62.6,59.5,29.76,SW,225,11.0,17.0,90,0.00,,,0.00,meteohub,2013-05-31 08:57:00,
2013-05-31 04:02:00,62.6,59.5,29.77,SW,225,13.0,17.0,90,0.00,,,0.00,meteohub,2013-05-31 09:02:00,
2013-05-31 04:07:00,62.6,59.5,29.76,SW,225,13.0,17.0,90,0.00,,,0.00,meteohub,2013-05-31 09:07:00,
2013-05-31 04:12:00,62.6,59.5,29.76,SW,225,14.0,16.0,90,0.00,,,0.00,meteohub,2013-05-31 09:12:00,
2013-05-31 04:17:00,62.6,59.5,29.76,South,180,17.0,17.0,90,0.00,,,0.00,meteohub,2013-05-31 09:17:00,
2013-05-31 04:22:00,62.6,59.5,29.77,SW,225,14.0,19.0,90,0.00,,,0.00,meteohub,2013-05-31 09:22:00,
2013-05-31 04:27:00,62.6,59.5,29.76,South,180,18.0,19.0,90,0.00,,,0.00,meteohub,2013-05-31 09:27:00,
2013-05-31 04:32:00,62.6,59.5,29.76,SW,225,10.0,19.0,90,0.00,,,0.00,meteohub,2013-05-31 09:32:00,
2013-05-31 04:37:00,62.6,59.5,29.77,South,180,15.0,19.0,90,0.00,,,0.00,meteohub,2013-05-31 09:37:00,
2013-05-31 04:42:00,62.4,59.7,29.77,SW,225,15.0,19.0,91,0.00,,,0.00,meteohub,2013-05-31 09:42:00,
2013-05-31 04:47:00,62.4,59.7,29.77,SW,225,13.0,15.0,91,0.00,,,0.00,meteohub,2013-05-31 09:47:00,
2013-05-31 04:52:00,62.2,59.5,29.77,South,180,11.0,15.0,91,0.00,,,0.00,meteohub,2013-05-31 09:52:00,
2013-05-31 04:57:00,62.2,59.5,29.77,SW,225,14.0,15.0,91,0.00,,,0.00,meteohub,2013-05-31 09:57:00,
2013-05-31 05:02:00,62.2,59.5,29.77,SW,225,14.0,16.0,91,0.00,,,0.00,meteohub,2013-05-31 10:02:00,
2013-05-31 05:07:00,62.2,59.5,29.78,SW,225,14.0,16.0,91,0.00,,,0.00,meteohub,2013-05-31 10:07:00,
2013-05-31 05:12:00,62.2,59.5,29.78,South,180,17.0,17.0,91,0.00,,,0.00,meteohub,2013-05-31 10:12:00,
2013-05-31 05:17:00,62.2,59.5,29.78,SW,225,12.0,17.0,91,0.00,,,0.00,meteohub,2013-05-31 10:17:00,
2013-05-31 05:22:00,62.4,59.7,29.76,SW,225,14.0,17.0,91,0.00,,,0.00,meteohub,2013-05-31 10:22:00,
2013-05-31 05:27:00,62.2,59.5,29.76,SW,225,17.0,17.0,91,0.00,,,0.00,meteohub,2013-05-31 10:27:00,
2013-05-31 05:32:00,62.4,59.7,29.76,SW,225,14.0,17.0,91,0.00,,,0.00,meteohub,2013-05-31 10:32:00,
2013-05-31 05:37:00,62.4,59.7,29.76,SW,225,13.0,17.0,91,0.00,,,0.00,meteohub,2013-05-31 10:37:00,
2013-05-31 05:42:00,62.6,59.9,29.76,SW,225,21.0,21.0,91,0.00,,,0.00,meteohub,2013-05-31 10:42:00,
2013-05-31 05:47:00,62.4,59.4,29.77,SW,225,16.0,21.0,90,0.00,,,0.00,meteohub,2013-05-31 10:47:00,
2013-05-31 05:52:00,62.4,59.4,29.77,WSW,248,11.0,21.0,90,0.00,,,0.00,meteohub,2013-05-31 10:52:00,
2013-05-31 05:57:00,62.4,59.4,29.76,WSW,248,17.0,21.0,90,0.00,,,0.00,meteohub,2013-05-31 10:57:00,
2013-05-31 06:02:00,62.4,59.4,29.76,SW,225,15.0,21.0,90,0.00,,,0.00,meteohub,2013-05-31 11:02:00,
2013-05-31 06:07:00,62.4,59.4,29.76,South,180,13.0,17.0,90,0.00,,,0.00,meteohub,2013-05-31 11:07:00,
2013-05-31 06:12:00,62.2,59.2,29.75,SW,225,15.0,17.0,90,0.00,,,0.00,meteohub,2013-05-31 11:12:00,
2013-05-31 06:17:00,62.2,59.2,29.75,WSW,248,11.0,17.0,90,0.00,,,0.00,meteohub,2013-05-31 11:17:00,
2013-05-31 06:22:00,62.2,59.2,29.75,SW,225,15.0,17.0,90,0.00,,,0.00,meteohub,2013-05-31 11:22:00,
2013-05-31 06:27:00,62.2,59.2,29.76,SW,225,17.0,20.0,90,0.00,,,0.00,meteohub,2013-05-31 11:27:00,
2013-05-31 06:32:00,62.2,59.2,29.77,South,180,13.0,22.0,90,0.00,,,0.00,meteohub,2013-05-31 11:32:00,
2013-05-31 06:37:00,62.2,59.2,29.76,SW,225,21.0,22.0,90,0.00,,,0.00,meteohub,2013-05-31 11:37:00,
2013-05-31 06:42:00,62.4,59.4,29.76,SW,225,15.0,21.0,90,0.00,,,0.00,meteohub,2013-05-31 11:42:00,
2013-05-31 06:47:00,62.4,59.7,29.77,South,180,15.0,21.0,91,0.00,,,0.00,meteohub,2013-05-31 11:47:00,
2013-05-31 06:52:00,62.4,59.7,29.77,SW,225,14.0,21.0,91,0.00,,,0.00,meteohub,2013-05-31 11:52:00,
2013-05-31 06:57:00,62.4,59.7,29.77,SW,225,15.0,18.0,91,0.00,,,0.00,meteohub,2013-05-31 11:57:00,
2013-05-31 07:02:00,62.4,59.7,29.77,SW,225,14.0,17.0,91,0.00,,,0.00,meteohub,2013-05-31 12:02:00,
2013-05-31 07:07:00,62.4,59.7,29.77,WNW,293,10.0,21.0,91,0.00,,,0.00,meteohub,2013-05-31 12:07:00,
2013-05-31 07:12:00,62.4,59.7,29.78,WSW,248,17.0,21.0,91,0.00,,,0.00,meteohub,2013-05-31 12:12:00,
2013-05-31 07:17:00,62.4,59.7,29.78,SW,225,15.0,21.0,91,0.00,,,0.00,meteohub,2013-05-31 12:17:00,
2013-05-31 07:22:00,62.4,59.7,29.78,SW,225,13.0,17.0,91,0.00,,,0.00,meteohub,2013-05-31 12:22:00,
2013-05-31 07:27:00,62.4,59.7,29.78,SW,225,15.0,18.0,91,0.00,,,0.00,meteohub,2013-05-31 12:27:00,
2013-05-31 07:32:00,62.4,59.7,29.78,SW,225,9.0,18.0,91,0.00,,,0.00,meteohub,2013-05-31 12:32:00,
2013-05-31 07:37:00,62.4,60.1,29.78,South,180,11.0,18.0,92,0.00,,,0.00,meteohub,2013-05-31 12:37:00,
2013-05-31 07:42:00,62.6,59.9,29.78,SW,225,8.0,16.0,91,0.00,,,0.00,meteohub,2013-05-31 12:42:00,
2013-05-31 07:47:00,62.6,59.9,29.78,SW,225,11.0,16.0,91,0.00,,,0.00,meteohub,2013-05-31 12:47:00,
2013-05-31 07:52:00,62.8,60.1,29.78,SW,225,9.0,16.0,91,0.00,,,0.00,meteohub,2013-05-31 12:52:00,
2013-05-31 07:57:00,62.8,60.1,29.77,SW,225,11.0,16.0,91,0.00,,,0.00,meteohub,2013-05-31 12:57:00,
2013-05-31 08:02:00,62.6,59.9,29.78,SW,225,11.0,16.0,91,0.00,,,0.00,meteohub,2013-05-31 13:02:00,
2013-05-31 08:07:00,62.8,60.1,29.78,SW,225,12.0,16.0,91,0.00,,,0.00,meteohub,2013-05-31 13:07:00,
2013-05-31 08:12:00,63.0,59.9,29.77,SW,225,11.0,13.0,90,0.00,,,0.00,meteohub,2013-05-31 13:12:00,
2013-05-31 08:17:00,63.1,60.1,29.78,SW,225,12.0,13.0,90,0.00,,,0.00,meteohub,2013-05-31 13:17:00,
2013-05-31 08:22:00,63.1,60.1,29.78,SW,225,14.0,14.0,90,0.00,,,0.00,meteohub,2013-05-31 13:22:00,
2013-05-31 08:27:00,63.5,60.3,29.78,SW,225,12.0,14.0,89,0.00,,,0.00,meteohub,2013-05-31 13:27:00,
2013-05-31 08:32:00,63.7,60.4,29.78,South,180,13.0,20.0,89,0.00,,,0.00,meteohub,2013-05-31 13:32:00,
2013-05-31 08:37:00,63.9,60.6,29.78,SW,225,8.0,20.0,89,0.00,,,0.00,meteohub,2013-05-31 13:37:00,
2013-05-31 08:42:00,64.4,60.8,29.78,SW,225,12.0,18.0,88,0.00,,,0.00,meteohub,2013-05-31 13:42:00,
2013-05-31 08:47:00,64.8,60.4,29.78,SW,225,15.0,18.0,86,0.00,,,0.00,meteohub,2013-05-31 13:47:00,
2013-05-31 08:52:00,64.9,61.0,29.78,South,180,11.0,18.0,87,0.00,,,0.00,meteohub,2013-05-31 13:52:00,
2013-05-31 08:57:00,65.3,61.0,29.78,South,180,15.0,18.0,86,0.00,,,0.00,meteohub,2013-05-31 13:57:00,
2013-05-31 09:02:00,66.0,61.3,29.77,SW,225,11.0,17.0,85,0.00,,,0.00,meteohub,2013-05-31 14:02:00,
2013-05-31 09:07:00,66.4,61.3,29.78,South,180,14.0,17.0,84,0.00,,,0.00,meteohub,2013-05-31 14:07:00,
2013-05-31 09:12:00,66.4,61.0,29.78,SW,225,16.0,18.0,83,0.00,,,0.00,meteohub,2013-05-31 14:12:00,
2013-05-31 09:17:00,66.2,60.8,29.78,SW,225,15.0,21.0,83,0.00,,,0.00,meteohub,2013-05-31 14:17:00,
2013-05-31 09:22:00,65.8,60.8,29.78,South,180,15.0,21.0,84,0.00,,,0.00,meteohub,2013-05-31 14:22:00,
2013-05-31 09:27:00,65.8,60.8,29.78,SW,225,12.0,21.0,84,0.00,,,0.00,meteohub,2013-05-31 14:27:00,
2013-05-31 09:32:00,66.0,61.0,29.78,South,180,17.0,18.0,84,0.00,,,0.00,meteohub,2013-05-31 14:32:00,
2013-05-31 09:37:00,66.4,61.3,29.78,South,180,13.0,18.0,84,0.00,,,0.00,meteohub,2013-05-31 14:37:00,
2013-05-31 09:42:00,66.4,61.0,29.78,South,180,16.0,22.0,83,0.00,,,0.00,meteohub,2013-05-31 14:42:00,
2013-05-31 09:47:00,66.2,61.2,29.78,SW,225,15.0,22.0,84,0.00,,,0.00,meteohub,2013-05-31 14:47:00,
2013-05-31 09:52:00,66.0,61.0,29.77,WSW,248,12.0,22.0,84,0.00,,,0.00,meteohub,2013-05-31 14:52:00,
2013-05-31 09:57:00,66.0,61.3,29.77,WSW,248,14.0,21.0,85,0.00,,,0.00,meteohub,2013-05-31 14:57:00,
2013-05-31 10:02:00,65.7,60.4,29.77,SW,225,22.0,22.0,83,0.00,,,0.00,meteohub,2013-05-31 15:02:00,
2013-05-31 10:07:00,65.8,61.2,29.78,SW,225,17.0,22.0,85,0.00,,,0.00,meteohub,2013-05-31 15:07:00,
2013-05-31 10:12:00,65.7,61.0,29.78,SW,225,14.0,22.0,85,0.00,,,0.00,meteohub,2013-05-31 15:12:00,
2013-05-31 10:17:00,65.5,61.2,29.78,WSW,248,10.0,22.0,86,0.00,,,0.00,meteohub,2013-05-31 15:17:00,
2013-05-31 10:22:00,65.5,61.5,29.78,South,180,15.0,18.0,87,0.00,,,0.00,meteohub,2013-05-31 15:22:00,
2013-05-31 10:27:00,65.3,61.7,29.78,South,180,20.0,20.0,88,0.00,,,0.00,meteohub,2013-05-31 15:27:00,
2013-05-31 10:32:00,65.5,62.4,29.78,South,180,8.0,20.0,90,0.00,,,0.00,meteohub,2013-05-31 15:32:00,
2013-05-31 10:37:00,65.5,62.2,29.76,South,180,12.0,20.0,89,0.00,,,0.00,meteohub,2013-05-31 15:37:00,
2013-05-31 10:43:00,65.5,62.8,29.78,SW,225,15.0,20.0,91,0.00,,,0.00,meteohub,2013-05-31 15:43:00,
2013-05-31 10:48:00,65.3,62.6,29.78,South,180,14.0,17.0,91,0.00,,,0.00,meteohub,2013-05-31 15:48:00,
2013-05-31 10:53:00,65.3,63.0,29.78,SW,225,11.0,18.0,92,0.00,,,0.00,meteohub,2013-05-31 15:53:00,
2013-05-31 10:58:00,65.3,63.0,29.78,South,180,14.0,18.0,92,0.00,,,0.00,meteohub,2013-05-31 15:58:00,
2013-05-31 11:03:00,65.3,63.1,29.78,South,180,9.0,18.0,93,0.00,,,0.00,meteohub,2013-05-31 16:03:00,
2013-05-31 11:08:00,65.5,63.3,29.78,SW,225,8.0,16.0,93,0.00,,,0.00,meteohub,2013-05-31 16:08:00,
2013-05-31 11:13:00,65.7,63.5,29.77,South,180,9.0,15.0,93,0.00,,,0.00,meteohub,2013-05-31 16:13:00,
2013-05-31 11:18:00,65.7,63.5,29.77,SW,225,8.0,15.0,93,0.00,,,0.00,meteohub,2013-05-31 16:18:00,
2013-05-31 11:23:00,65.8,63.5,29.78,SW,225,11.0,11.0,92,0.00,,,0.00,meteohub,2013-05-31 16:23:00,
2013-05-31 11:28:00,65.8,63.5,29.78,SW,225,12.0,15.0,92,0.00,,,0.00,meteohub,2013-05-31 16:28:00,
2013-05-31 11:33:00,66.4,64.0,29.78,SW,225,14.0,15.0,92,0.00,,,0.00,meteohub,2013-05-31 16:33:00,
2013-05-31 11:38:00,67.5,65.1,29.78,SSW,203,8.0,15.0,92,0.00,,,0.00,meteohub,2013-05-31 16:38:00,
2013-05-31 11:43:00,68.0,64.6,29.78,South,180,13.0,15.0,89,0.00,,,0.00,meteohub,2013-05-31 16:43:00,
2013-05-31 11:48:00,68.5,64.2,29.78,West,270,14.0,15.0,86,0.00,,,0.00,meteohub,2013-05-31 16:48:00,
2013-05-31 11:54:00,69.4,64.8,29.77,SW,225,9.0,16.0,85,0.00,,,0.00,meteohub,2013-05-31 16:54:00,
2013-05-31 11:59:00,70.0,64.2,29.77,West,270,17.0,17.0,82,0.00,,,0.00,meteohub,2013-05-31 16:59:00,
2013-05-31 12:04:00,70.0,64.2,29.78,SW,225,14.0,17.0,82,0.00,,,0.00,meteohub,2013-05-31 17:04:00,
2013-05-31 12:09:00,70.5,63.3,29.78,South,180,15.0,17.0,78,0.00,,,0.00,meteohub,2013-05-31 17:09:00,
2013-05-31 12:14:00,70.9,64.0,29.78,SW,225,11.0,17.0,79,0.00,,,0.00,meteohub,2013-05-31 17:14:00,
2013-05-31 12:19:00,71.6,63.7,29.77,SW,225,13.0,17.0,76,0.00,,,0.00,meteohub,2013-05-31 17:19:00,
2013-05-31 12:24:00,72.1,63.9,29.77,WSW,248,15.0,17.0,75,0.00,,,0.00,meteohub,2013-05-31 17:24:00,
2013-05-31 12:29:00,72.5,63.0,29.76,SW,225,15.0,16.0,72,0.00,,,0.00,meteohub,2013-05-31 17:29:00,
2013-05-31 12:34:00,72.5,63.3,29.77,WNW,293,18.0,18.0,73,0.00,,,0.00,meteohub,2013-05-31 17:34:00,
2013-05-31 12:39:00,72.7,63.1,29.77,SW,225,13.0,16.0,72,0.00,,,0.00,meteohub,2013-05-31 17:39:00,
2013-05-31 12:44:00,73.2,63.3,29.76,SW,225,15.0,18.0,71,0.00,,,0.00,meteohub,2013-05-31 17:44:00,
2013-05-31 12:49:00,73.0,63.5,29.77,SW,225,12.0,19.0,72,0.00,,,0.00,meteohub,2013-05-31 17:49:00,
2013-05-31 12:54:00,73.0,63.5,29.76,South,180,10.0,19.0,72,0.00,,,0.00,meteohub,2013-05-31 17:54:00,
2013-05-31 12:59:00,72.9,62.4,29.75,West,270,16.0,19.0,70,0.00,,,0.00,meteohub,2013-05-31 17:59:00,
2013-05-31 13:05:00,72.5,62.2,29.75,SW,225,18.0,19.0,70,0.00,,,0.00,meteohub,2013-05-31 18:05:00,
2013-05-31 13:10:00,72.3,62.1,29.75,West,270,16.0,20.0,70,0.00,,,0.00,meteohub,2013-05-31 18:10:00,
2013-05-31 13:15:00,72.3,62.4,29.75,SW,225,15.0,20.0,71,0.00,,,0.00,meteohub,2013-05-31 18:15:00,
2013-05-31 13:20:00,72.1,62.2,29.75,WSW,248,12.0,20.0,71,0.00,,,0.00,meteohub,2013-05-31 18:20:00,
2013-05-31 13:25:00,72.1,63.0,29.75,SW,225,10.0,17.0,73,0.00,,,0.00,meteohub,2013-05-31 18:25:00,
2013-05-31 13:30:00,72.3,62.4,29.75,SW,225,13.0,16.0,71,0.00,,,0.00,meteohub,2013-05-31 18:30:00,
2013-05-31 13:35:00,72.1,61.9,29.75,West,270,12.0,16.0,70,0.00,,,0.00,meteohub,2013-05-31 18:35:00,
2013-05-31 13:40:00,72.3,62.8,29.75,SW,225,10.0,16.0,72,0.00,,,0.00,meteohub,2013-05-31 18:40:00,
2013-05-31 13:45:00,72.7,63.1,29.75,SW,225,9.0,14.0,72,0.00,,,0.00,meteohub,2013-05-31 18:45:00,
2013-05-31 13:50:00,73.0,63.1,29.75,SW,225,10.0,15.0,71,0.00,,,0.00,meteohub,2013-05-31 18:50:00,
2013-05-31 13:55:00,73.6,63.7,29.76,SW,225,11.0,15.0,71,0.00,,,0.00,meteohub,2013-05-31 18:55:00,
2013-05-31 14:00:00,73.8,63.0,29.76,WSW,248,11.0,15.0,69,0.00,,,0.00,meteohub,2013-05-31 19:00:00,
2013-05-31 14:05:00,73.9,62.8,29.75,SW,225,13.0,15.0,68,0.00,,,0.00,meteohub,2013-05-31 19:05:00,
2013-05-31 14:11:00,74.3,62.6,29.76,SW,225,15.0,18.0,67,0.00,,,0.00,meteohub,2013-05-31 19:11:00,
2013-05-31 14:16:00,74.7,62.6,29.76,SW,225,9.0,19.0,66,0.00,,,0.00,meteohub,2013-05-31 19:16:00,
2013-05-31 14:21:00,74.1,61.5,29.75,SW,225,11.0,19.0,65,0.00,,,0.00,meteohub,2013-05-31 19:21:00,
2013-05-31 14:26:00,74.3,62.6,29.75,SW,225,14.0,19.0,67,0.00,,,0.00,meteohub,2013-05-31 19:26:00,
2013-05-31 14:31:00,74.5,62.8,29.75,SW,225,9.0,18.0,67,0.00,,,0.00,meteohub,2013-05-31 19:31:00,
2013-05-31 14:36:00,74.5,61.9,29.75,SW,225,11.0,15.0,65,0.00,,,0.00,meteohub,2013-05-31 19:36:00,
2013-05-31 14:41:00,73.9,60.6,29.75,SW,225,14.0,14.0,63,0.00,,,0.00,meteohub,2013-05-31 19:41:00,
2013-05-31 14:46:00,73.9,62.2,29.75,WNW,293,9.0,15.0,67,0.00,,,0.00,meteohub,2013-05-31 19:46:00,
2013-05-31 14:51:00,73.9,62.2,29.75,WSW,248,11.0,15.0,67,0.00,,,0.00,meteohub,2013-05-31 19:51:00,
2013-05-31 14:56:00,74.3,62.2,29.75,West,270,5.0,15.0,66,0.00,,,0.00,meteohub,2013-05-31 19:56:00,
2013-05-31 15:01:00,74.3,60.8,29.75,West,270,13.0,16.0,63,0.00,,,0.00,meteohub,2013-05-31 20:01:00,
2013-05-31 15:06:00,74.3,61.7,29.75,WSW,248,13.0,17.0,65,0.00,,,0.00,meteohub,2013-05-31 20:06:00,
2013-05-31 15:11:00,75.6,60.6,29.75,SW,225,15.0,17.0,60,0.00,,,0.00,meteohub,2013-05-31 20:11:00,
2013-05-31 15:17:00,75.2,62.2,29.74,SW,225,16.0,17.0,64,0.00,,,0.00,meteohub,2013-05-31 20:17:00,
2013-05-31 15:22:00,75.4,60.4,29.74,South,180,22.0,22.0,60,0.00,,,0.00,meteohub,2013-05-31 20:22:00,
2013-05-31 15:27:00,75.4,60.4,29.74,SW,225,16.0,23.0,60,0.00,,,0.00,meteohub,2013-05-31 20:27:00,
2013-05-31 15:32:00,75.4,60.4,29.74,South,180,15.0,23.0,60,0.00,,,0.00,meteohub,2013-05-31 20:32:00,
2013-05-31 15:37:00,75.2,59.9,29.74,SW,225,17.0,23.0,59,0.00,,,0.00,meteohub,2013-05-31 20:37:00,
2013-05-31 15:42:00,74.8,59.5,29.73,SW,225,16.0,21.0,59,0.00,,,0.00,meteohub,2013-05-31 20:42:00,
2013-05-31 15:47:00,74.8,59.0,29.73,SW,225,23.0,23.0,58,0.00,,,0.00,meteohub,2013-05-31 20:47:00,
2013-05-31 15:52:00,75.0,59.2,29.73,SW,225,20.0,23.0,58,0.00,,,0.00,meteohub,2013-05-31 20:52:00,
2013-05-31 15:57:00,75.4,60.4,29.73,SW,225,17.0,23.0,60,0.00,,,0.00,meteohub,2013-05-31 20:57:00,
2013-05-31 16:02:00,75.7,59.0,29.73,SW,225,21.0,23.0,56,0.00,,,0.00,meteohub,2013-05-31 21:02:00,
2013-05-31 16:07:00,75.4,60.1,29.73,SW,225,14.0,22.0,59,0.00,,,0.00,meteohub,2013-05-31 21:07:00,
2013-05-31 16:12:00,74.5,59.2,29.73,South,180,17.0,21.0,59,0.00,,,0.00,meteohub,2013-05-31 21:12:00,
2013-05-31 16:17:00,74.8,59.5,29.73,South,180,15.0,21.0,59,0.00,,,0.00,meteohub,2013-05-31 21:17:00,
2013-05-31 16:22:00,75.4,59.5,29.73,SW,225,17.0,21.0,58,0.00,,,0.00,meteohub,2013-05-31 21:22:00,
2013-05-31 16:27:00,75.4,59.0,29.72,NW,315,21.0,21.0,57,0.00,,,0.00,meteohub,2013-05-31 21:27:00,
2013-05-31 16:32:00,75.0,58.8,29.73,South,180,18.0,25.0,57,0.00,,,0.00,meteohub,2013-05-31 21:32:00,
2013-05-31 16:37:00,74.5,59.2,29.73,NW,315,13.0,25.0,59,0.00,,,0.00,meteohub,2013-05-31 21:37:00,
2013-05-31 16:42:00,75.0,59.2,29.73,SW,225,20.0,25.0,58,0.00,,,0.00,meteohub,2013-05-31 21:42:00,
2013-05-31 16:47:00,75.2,59.0,29.72,SW,225,17.0,23.0,57,0.00,,,0.00,meteohub,2013-05-31 21:47:00,
2013-05-31 16:52:00,74.1,58.5,29.73,SW,225,19.0,23.0,58,0.00,,,0.00,meteohub,2013-05-31 21:52:00,
2013-05-31 16:57:00,73.9,59.7,29.73,SW,225,17.0,22.0,61,0.00,,,0.00,meteohub,2013-05-31 21:57:00,
2013-05-31 17:02:00,73.8,59.5,29.72,SW,225,18.0,22.0,61,0.00,,,0.00,meteohub,2013-05-31 22:02:00,
2013-05-31 17:07:00,73.9,59.7,29.72,SW,225,16.0,22.0,61,0.00,,,0.00,meteohub,2013-05-31 22:07:00,
2013-05-31 17:12:00,74.7,60.3,29.72,SW,225,19.0,22.0,61,0.00,,,0.00,meteohub,2013-05-31 22:12:00,
2013-05-31 17:17:00,74.8,60.4,29.72,SSW,203,11.0,23.0,61,0.00,,,0.00,meteohub,2013-05-31 22:17:00,
2013-05-31 17:22:00,75.2,60.4,29.72,SW,225,18.0,23.0,60,0.00,,,0.00,meteohub,2013-05-31 22:22:00,
2013-05-31 17:27:00,74.8,60.1,29.72,SW,225,16.0,23.0,60,0.00,,,0.00,meteohub,2013-05-31 22:27:00,
2013-05-31 17:32:00,75.4,61.5,29.72,SW,225,13.0,21.0,62,0.00,,,0.00,meteohub,2013-05-31 22:32:00,
2013-05-31 17:37:00,75.2,60.8,29.72,SW,225,20.0,21.0,61,0.00,,,0.00,meteohub,2013-05-31 22:37:00,
2013-05-31 17:42:00,75.0,62.1,29.72,SW,225,12.0,21.0,64,0.00,,,0.00,meteohub,2013-05-31 22:42:00,
2013-05-31 17:47:00,75.0,60.6,29.71,SW,225,20.0,21.0,61,0.00,,,0.00,meteohub,2013-05-31 22:47:00,
2013-05-31 17:52:00,74.8,60.4,29.71,SW,225,23.0,23.0,61,0.00,,,0.00,meteohub,2013-05-31 22:52:00,
2013-05-31 17:57:00,74.5,60.6,29.72,SW,225,18.0,24.0,62,0.00,,,0.00,meteohub,2013-05-31 22:57:00,
2013-05-31 18:02:00,74.1,60.3,29.71,WNW,293,15.0,27.0,62,0.00,,,0.00,meteohub,2013-05-31 23:02:00,
2013-05-31 18:07:00,74.3,60.8,29.70,South,180,21.0,27.0,63,0.00,,,0.00,meteohub,2013-05-31 23:07:00,
2013-05-31 18:12:00,74.1,61.2,29.71,SW,225,12.0,22.0,64,0.00,,,0.00,meteohub,2013-05-31 23:12:00,
2013-05-31 18:17:00,74.1,61.2,29.71,SW,225,11.0,21.0,64,0.00,,,0.00,meteohub,2013-05-31 23:17:00,
2013-05-31 18:22:00,73.9,61.3,29.72,NW,315,14.0,21.0,65,0.00,,,0.00,meteohub,2013-05-31 23:22:00,
2013-05-31 18:27:00,73.8,61.3,29.71,NW,315,14.0,19.0,65,0.00,,,0.00,meteohub,2013-05-31 23:27:00,
2013-05-31 18:32:00,73.6,61.2,29.71,South,180,15.0,19.0,65,0.00,,,0.00,meteohub,2013-05-31 23:32:00,
2013-05-31 18:37:00,73.4,61.3,29.71,SW,225,10.0,19.0,66,0.00,,,0.00,meteohub,2013-05-31 23:37:00,
2013-05-31 18:42:00,73.2,60.8,29.71,SW,225,16.0,17.0,65,0.00,,,0.00,meteohub,2013-05-31 23:42:00,
2013-05-31 18:47:00,73.2,61.5,29.72,SSW,203,15.0,17.0,67,0.00,,,0.00,meteohub,2013-05-31 23:47:00,
2013-05-31 18:52:00,73.2,61.5,29.71,SW,225,14.0,17.0,67,0.00,,,0.00,meteohub,2013-05-31 23:52:00,
2013-05-31 18:57:00,72.9,60.8,29.71,SW,225,12.0,16.0,66,0.00,,,0.00,meteohub,2013-05-31 23:57:00,
2013-05-31 19:02:00,72.7,61.2,29.71,West,270,12.0,17.0,67,0.00,,,0.00,meteohub,2013-06-01 00:02:00,
2013-05-31 19:07:00,72.7,61.2,29.71,WSW,248,11.0,17.0,67,0.00,,,0.00,meteohub,2013-06-01 00:07:00,
2013-05-31 19:12:00,72.3,61.2,29.71,SW,225,19.0,19.0,68,0.00,,,0.00,meteohub,2013-06-01 00:12:00,
2013-05-31 19:17:00,72.1,61.3,29.72,SW,225,10.0,19.0,69,0.00,,,0.00,meteohub,2013-06-01 00:17:00,
2013-05-31 19:22:00,72.0,61.2,29.71,WNW,293,15.0,19.0,69,0.00,,,0.00,meteohub,2013-06-01 00:22:00,
2013-05-31 19:27:00,71.8,61.5,29.71,South,180,11.0,19.0,70,0.00,,,0.00,meteohub,2013-06-01 00:27:00,
2013-05-31 19:32:00,71.6,61.7,29.72,SW,225,10.0,17.0,71,0.00,,,0.00,meteohub,2013-06-01 00:32:00,
2013-05-31 19:37:00,71.2,61.3,29.72,South,180,11.0,17.0,71,0.00,,,0.00,meteohub,2013-06-01 00:37:00,
2013-05-31 19:42:00,70.9,61.3,29.71,SW,225,13.0,17.0,72,0.00,,,0.00,meteohub,2013-06-01 00:42:00,
2013-05-31 19:47:00,70.5,61.0,29.71,South,180,9.0,17.0,72,0.00,,,0.00,meteohub,2013-06-01 00:47:00,
2013-05-31 19:52:00,70.3,61.3,29.71,SW,225,11.0,17.0,73,0.00,,,0.00,meteohub,2013-06-01 00:52:00,
2013-05-31 19:57:00,70.2,61.9,29.71,South,180,17.0,17.0,75,0.00,,,0.00,meteohub,2013-06-01 00:57:00,
2013-05-31 20:02:00,69.8,61.9,29.70,SSW,203,17.0,17.0,76,0.00,,,0.00,meteohub,2013-06-01 01:02:00,
2013-05-31 20:07:00,69.4,61.9,29.70,South,180,15.0,17.0,77,0.00,,,0.00,meteohub,2013-06-01 01:07:00,
2013-05-31 20:12:00,69.3,61.7,29.70,South,180,13.0,17.0,77,0.00,,,0.00,meteohub,2013-06-01 01:12:00,
2013-05-31 20:17:00,69.1,61.9,29.70,SW,225,11.0,17.0,78,0.00,,,0.00,meteohub,2013-06-01 01:17:00,
2013-05-31 20:22:00,68.9,61.7,29.70,SW,225,11.0,17.0,78,0.00,,,0.00,meteohub,2013-06-01 01:22:00,
2013-05-31 20:27:00,68.7,61.9,29.70,SW,225,11.0,17.0,79,0.00,,,0.00,meteohub,2013-06-01 01:27:00,
2013-05-31 20:32:00,68.5,62.1,29.71,South,180,5.0,12.0,80,0.00,,,0.00,meteohub,2013-06-01 01:32:00,
2013-05-31 20:37:00,68.2,61.7,29.71,SW,225,9.0,13.0,80,0.00,,,0.00,meteohub,2013-06-01 01:37:00,
2013-05-31 20:42:00,68.0,61.9,29.72,SW,225,7.0,13.0,81,0.00,,,0.00,meteohub,2013-06-01 01:42:00,
2013-05-31 20:47:00,67.8,62.1,29.72,SW,225,8.0,12.0,82,0.00,,,0.00,meteohub,2013-06-01 01:47:00,
2013-05-31 20:52:00,67.6,62.2,29.72,SW,225,8.0,12.0,83,0.00,,,0.00,meteohub,2013-06-01 01:52:00,
2013-05-31 20:57:00,67.6,62.6,29.71,SW,225,11.0,11.0,84,0.00,,,0.00,meteohub,2013-06-01 01:57:00,
2013-05-31 21:02:00,67.5,62.8,29.72,South,180,8.0,11.0,85,0.00,,,0.00,meteohub,2013-06-01 02:02:00,
2013-05-31 21:07:00,67.3,63.0,29.72,SW,225,8.0,11.0,86,0.00,,,0.00,meteohub,2013-06-01 02:07:00,
2013-05-31 21:12:00,67.1,62.8,29.72,West,270,8.0,11.0,86,0.00,,,0.00,meteohub,2013-06-01 02:12:00,
2013-05-31 21:17:00,66.9,63.0,29.72,SW,225,8.0,10.0,87,0.00,,,0.00,meteohub,2013-06-01 02:17:00,
2013-05-31 21:22:00,66.7,63.3,29.72,WSW,248,10.0,11.0,89,0.00,,,0.00,meteohub,2013-06-01 02:22:00,
2013-05-31 21:27:00,66.7,63.3,29.72,South,180,10.0,11.0,89,0.00,,,0.00,meteohub,2013-06-01 02:27:00,
2013-05-31 21:32:00,66.6,63.1,29.72,SE,135,9.0,11.0,89,0.00,,,0.00,meteohub,2013-06-01 02:32:00,
2013-05-31 21:37:00,66.6,63.9,29.72,SW,225,9.0,11.0,91,0.00,,,0.00,meteohub,2013-06-01 02:37:00,
2013-05-31 21:42:00,66.4,63.7,29.72,SW,225,5.0,10.0,91,0.00,,,0.00,meteohub,2013-06-01 02:42:00,
2013-05-31 21:47:00,66.4,64.0,29.72,SSW,203,9.0,10.0,92,0.00,,,0.00,meteohub,2013-06-01 02:47:00,
2013-05-31 21:52:00,66.2,63.9,29.72,SE,135,8.0,11.0,92,0.00,,,0.00,meteohub,2013-06-01 02:52:00,
2013-05-31 21:57:00,66.2,64.0,29.72,South,180,9.0,11.0,93,0.00,,,0.00,meteohub,2013-06-01 02:57:00,
2013-05-31 22:02:00,66.4,64.2,29.71,South,180,9.0,11.0,93,0.00,,,0.00,meteohub,2013-06-01 03:02:00,
2013-05-31 22:07:00,66.2,64.0,29.72,South,180,10.0,11.0,93,0.00,,,0.00,meteohub,2013-06-01 03:07:00,
2013-05-31 22:12:00,66.0,64.2,29.72,SSW,203,8.0,11.0,94,0.00,,,0.00,meteohub,2013-06-01 03:12:00,
2013-05-31 22:17:00,66.0,64.2,29.71,SW,225,7.0,11.0,94,0.00,,,0.00,meteohub,2013-06-01 03:17:00,
2013-05-31 22:22:00,66.0,64.2,29.71,South,180,8.0,11.0,94,0.00,,,0.00,meteohub,2013-06-01 03:22:00,
2013-05-31 22:27:00,66.0,64.6,29.71,SW,225,8.0,10.0,95,0.00,,,0.00,meteohub,2013-06-01 03:27:00,
2013-05-31 22:32:00,66.0,64.6,29.71,South,180,8.0,8.0,95,0.00,,,0.00,meteohub,2013-06-01 03:32:00,
2013-05-31 22:37:00,66.0,64.6,29.71,South,180,8.0,11.0,95,0.00,,,0.00,meteohub,2013-06-01 03:37:00,
2013-05-31 22:42:00,66.0,64.6,29.71,SW,225,7.0,11.0,95,0.00,,,0.00,meteohub,2013-06-01 03:42:00,
2013-05-31 22:47:00,66.0,64.8,29.71,South,180,7.0,11.0,96,0.00,,,0.00,meteohub,2013-06-01 03:47:00,
2013-05-31 22:52:00,66.0,64.8,29.70,SW,225,9.0,9.0,96,0.00,,,0.00,meteohub,2013-06-01 03:52:00,
2013-05-31 22:57:00,66.0,64.8,29.70,SW,225,8.0,9.0,96,0.00,,,0.00,meteohub,2013-06-01 03:57:00,
2013-05-31 23:01:00,66.0,64.8,29.70,South,180,6.0,11.0,96,0.00,,,0.00,meteohub,2013-06-01 04:01:00,
2013-05-31 23:02:00,66.0,64.8,29.70,South,180,8.0,11.0,96,0.00,,,0.00,meteohub,2013-06-01 04:02:00,
2013-05-31 23:03:00,65.8,64.6,29.70,SSW,203,7.0,11.0,96,0.00,,,0.00,meteohub,2013-06-01 04:03:00,
2013-05-31 23:08:00,66.0,64.8,29.70,South,180,8.0,11.0,96,0.00,,,0.00,meteohub,2013-06-01 04:08:00,
2013-05-31 23:14:00,65.8,64.9,29.70,South,180,8.0,11.0,97,0.00,,,0.00,meteohub,2013-06-01 04:14:00,
2013-05-31 23:19:00,65.8,64.9,29.70,SE,135,8.0,8.0,97,0.00,,,0.00,meteohub,2013-06-01 04:19:00,
2013-05-31 23:24:00,66.0,65.1,29.69,SW,225,8.0,10.0,97,0.00,,,0.00,meteohub,2013-06-01 04:24:00,
2013-05-31 23:29:00,66.0,65.1,29.69,South,180,8.0,12.0,97,0.00,,,0.00,meteohub,2013-06-01 04:29:00,
2013-05-31 23:34:00,66.0,65.1,29.69,South,180,9.0,12.0,97,0.00,,,0.00,meteohub,2013-06-01 04:34:00,
2013-05-31 23:39:00,66.0,65.1,29.68,SW,225,7.0,12.0,97,0.00,,,0.00,meteohub,2013-06-01 04:39:00,
2013-05-31 23:44:00,66.0,65.1,29.68,SW,225,12.0,12.0,97,0.00,,,0.00,meteohub,2013-06-01 04:44:00,
2013-05-31 23:49:00,66.0,65.5,29.68,South,180,9.0,12.0,98,0.00,,,0.00,meteohub,2013-06-01 04:49:00,
2013-05-31 23:54:00,66.2,65.7,29.69,SW,225,7.0,12.0,98,0.00,,,0.00,meteohub,2013-06-01 04:54:00,
2013-05-31 23:59:00,66.2,65.7,29.69,WSW,248,9.0,12.0,98,0.00,,,0.00,meteohub,2013-06-01 04:59:00,